sensor_id;sensor_type;location;lat;lon;timestamp;P1;durP1;ratioP1;P2;durP2;ratioP2
26486;SDS011;14425;56.136;40.360;2023-11-19T00:02:21;7.82;;;4.25;;
26486;SDS011;14425;56.136;40.360;2023-11-19T00:04:47;7.00;;;4.05;;
26486;SDS011;14425;56.136;40.360;2023-11-19T00:07:13;6.82;;;3.70;;
26486;SDS011;14425;56.136;40.360;2023-11-19T00:09:39;7.85;;;3.40;;
26486;SDS011;14425;56.136;40.360;2023-11-19T00:12:05;6.72;;;3.47;;
26486;SDS011;14425;56.136;40.360;2023-11-19T00:14:31;6.20;;;4.05;;
26486;SDS011;14425;56.136;40.360;2023-11-19T00:16:56;9.70;;;3.85;;
26486;SDS011;14425;56.136;40.360;2023-11-19T00:19:22;7.03;;;3.50;;
26486;SDS011;14425;56.136;40.360;2023-11-19T00:21:47;7.22;;;4.10;;
26486;SDS011;14425;56.136;40.360;2023-11-19T00:24:13;7.28;;;4.07;;
26486;SDS011;14425;56.136;40.360;2023-11-19T00:26:41;6.03;;;2.92;;
26486;SDS011;14425;56.136;40.360;2023-11-19T00:29:07;7.38;;;3.45;;
26486;SDS011;14425;56.136;40.360;2023-11-19T00:31:32;8.85;;;4.25;;
26486;SDS011;14425;56.136;40.360;2023-11-19T00:33:58;7.80;;;4.05;;
26486;SDS011;14425;56.136;40.360;2023-11-19T00:36:23;5.18;;;3.35;;
26486;SDS011;14425;56.136;40.360;2023-11-19T00:38:49;7.82;;;4.05;;
26486;SDS011;14425;56.136;40.360;2023-11-19T00:41:15;8.93;;;3.67;;
26486;SDS011;14425;56.136;40.360;2023-11-19T00:43:41;6.25;;;3.45;;
26486;SDS011;14425;56.136;40.360;2023-11-19T00:46:07;8.68;;;4.03;;
26486;SDS011;14425;56.136;40.360;2023-11-19T00:48:33;8.30;;;3.78;;
26486;SDS011;14425;56.136;40.360;2023-11-19T00:50:58;8.90;;;3.55;;
26486;SDS011;14425;56.136;40.360;2023-11-19T00:53:23;8.18;;;3.40;;
26486;SDS011;14425;56.136;40.360;2023-11-19T00:55:49;8.68;;;4.30;;
26486;SDS011;14425;56.136;40.360;2023-11-19T00:58:14;9.25;;;3.67;;
26486;SDS011;14425;56.136;40.360;2023-11-19T01:00:40;9.18;;;4.07;;
26486;SDS011;14425;56.136;40.360;2023-11-19T01:03:05;7.10;;;3.67;;
26486;SDS011;14425;56.136;40.360;2023-11-19T01:05:32;7.55;;;3.92;;
26486;SDS011;14425;56.136;40.360;2023-11-19T01:07:57;6.18;;;3.53;;
26486;SDS011;14425;56.136;40.360;2023-11-19T01:10:23;8.68;;;4.10;;
26486;SDS011;14425;56.136;40.360;2023-11-19T01:12:49;7.65;;;4.13;;
26486;SDS011;14425;56.136;40.360;2023-11-19T01:15:15;8.75;;;3.85;;
26486;SDS011;14425;56.136;40.360;2023-11-19T01:17:40;13.68;;;4.15;;
26486;SDS011;14425;56.136;40.360;2023-11-19T01:20:06;7.75;;;3.72;;
26486;SDS011;14425;56.136;40.360;2023-11-19T01:22:32;6.25;;;3.80;;
26486;SDS011;14425;56.136;40.360;2023-11-19T01:24:57;6.78;;;3.55;;
26486;SDS011;14425;56.136;40.360;2023-11-19T01:27:26;6.95;;;3.60;;
26486;SDS011;14425;56.136;40.360;2023-11-19T01:29:51;7.07;;;3.70;;
26486;SDS011;14425;56.136;40.360;2023-11-19T01:32:17;7.25;;;3.83;;
26486;SDS011;14425;56.136;40.360;2023-11-19T01:34:42;6.30;;;3.70;;
26486;SDS011;14425;56.136;40.360;2023-11-19T01:37:08;8.60;;;3.47;;
26486;SDS011;14425;56.136;40.360;2023-11-19T01:39:35;6.25;;;3.53;;
26486;SDS011;14425;56.136;40.360;2023-11-19T01:42:01;5.85;;;3.28;;
26486;SDS011;14425;56.136;40.360;2023-11-19T01:44:26;8.45;;;4.00;;
26486;SDS011;14425;56.136;40.360;2023-11-19T01:46:52;8.88;;;3.35;;
26486;SDS011;14425;56.136;40.360;2023-11-19T01:49:17;8.73;;;3.50;;
26486;SDS011;14425;56.136;40.360;2023-11-19T01:51:44;10.60;;;3.65;;
26486;SDS011;14425;56.136;40.360;2023-11-19T01:54:10;7.18;;;3.50;;
26486;SDS011;14425;56.136;40.360;2023-11-19T01:56:36;6.32;;;3.50;;
26486;SDS011;14425;56.136;40.360;2023-11-19T01:59:05;7.07;;;3.78;;
26486;SDS011;14425;56.136;40.360;2023-11-19T02:01:31;5.80;;;3.15;;
26486;SDS011;14425;56.136;40.360;2023-11-19T02:03:59;6.05;;;3.17;;
26486;SDS011;14425;56.136;40.360;2023-11-19T02:06:26;5.40;;;3.30;;
26486;SDS011;14425;56.136;40.360;2023-11-19T02:08:53;4.55;;;2.33;;
26486;SDS011;14425;56.136;40.360;2023-11-19T02:11:18;5.28;;;2.78;;
26486;SDS011;14425;56.136;40.360;2023-11-19T02:13:43;5.32;;;2.90;;
26486;SDS011;14425;56.136;40.360;2023-11-19T02:16:09;6.93;;;2.70;;
26486;SDS011;14425;56.136;40.360;2023-11-19T02:18:37;8.02;;;3.15;;
26486;SDS011;14425;56.136;40.360;2023-11-19T02:21:02;6.28;;;2.72;;
26486;SDS011;14425;56.136;40.360;2023-11-19T02:23:28;5.03;;;2.88;;
26486;SDS011;14425;56.136;40.360;2023-11-19T02:28:26;5.97;;;2.47;;
26486;SDS011;14425;56.136;40.360;2023-11-19T02:30:52;4.93;;;2.40;;
26486;SDS011;14425;56.136;40.360;2023-11-19T02:33:18;3.38;;;1.98;;
26486;SDS011;14425;56.136;40.360;2023-11-19T02:35:44;3.50;;;2.47;;
26486;SDS011;14425;56.136;40.360;2023-11-19T02:38:09;7.93;;;2.25;;
26486;SDS011;14425;56.136;40.360;2023-11-19T02:40:35;4.35;;;2.75;;
26486;SDS011;14425;56.136;40.360;2023-11-19T02:43:00;3.45;;;2.40;;
26486;SDS011;14425;56.136;40.360;2023-11-19T02:45:26;3.72;;;2.10;;
26486;SDS011;14425;56.136;40.360;2023-11-19T02:47:52;5.45;;;1.90;;
26486;SDS011;14425;56.136;40.360;2023-11-19T02:50:18;5.80;;;2.30;;
26486;SDS011;14425;56.136;40.360;2023-11-19T02:52:50;3.35;;;1.98;;
26486;SDS011;14425;56.136;40.360;2023-11-19T02:55:16;4.28;;;1.83;;
26486;SDS011;14425;56.136;40.360;2023-11-19T02:57:43;5.05;;;3.13;;
26486;SDS011;14425;56.136;40.360;2023-11-19T03:00:16;3.72;;;1.60;;
26486;SDS011;14425;56.136;40.360;2023-11-19T03:02:43;4.78;;;2.53;;
26486;SDS011;14425;56.136;40.360;2023-11-19T03:05:15;4.25;;;1.92;;
26486;SDS011;14425;56.136;40.360;2023-11-19T03:07:42;4.90;;;2.28;;
26486;SDS011;14425;56.136;40.360;2023-11-19T03:10:10;8.65;;;2.60;;
26486;SDS011;14425;56.136;40.360;2023-11-19T03:12:39;5.30;;;2.40;;
26486;SDS011;14425;56.136;40.360;2023-11-19T03:15:05;6.60;;;3.25;;
26486;SDS011;14425;56.136;40.360;2023-11-19T03:17:31;4.88;;;2.50;;
26486;SDS011;14425;56.136;40.360;2023-11-19T03:19:56;5.13;;;2.38;;
26486;SDS011;14425;56.136;40.360;2023-11-19T03:22:22;5.03;;;2.60;;
26486;SDS011;14425;56.136;40.360;2023-11-19T03:24:47;3.88;;;2.33;;
26486;SDS011;14425;56.136;40.360;2023-11-19T03:27:15;6.55;;;2.85;;
26486;SDS011;14425;56.136;40.360;2023-11-19T03:29:41;6.00;;;2.72;;
26486;SDS011;14425;56.136;40.360;2023-11-19T03:32:06;7.15;;;3.05;;
26486;SDS011;14425;56.136;40.360;2023-11-19T03:34:32;5.80;;;3.35;;
26486;SDS011;14425;56.136;40.360;2023-11-19T03:36:57;6.68;;;3.30;;
26486;SDS011;14425;56.136;40.360;2023-11-19T03:39:22;4.57;;;2.88;;
26486;SDS011;14425;56.136;40.360;2023-11-19T03:41:50;8.65;;;4.78;;
26486;SDS011;14425;56.136;40.360;2023-11-19T03:44:15;6.72;;;3.55;;
26486;SDS011;14425;56.136;40.360;2023-11-19T03:46:41;5.70;;;3.13;;
26486;SDS011;14425;56.136;40.360;2023-11-19T03:49:07;5.50;;;3.45;;
26486;SDS011;14425;56.136;40.360;2023-11-19T03:51:33;6.90;;;3.78;;
26486;SDS011;14425;56.136;40.360;2023-11-19T03:54:00;6.80;;;3.42;;
26486;SDS011;14425;56.136;40.360;2023-11-19T03:56:26;6.97;;;3.88;;
26486;SDS011;14425;56.136;40.360;2023-11-19T03:58:52;8.23;;;5.03;;
26486;SDS011;14425;56.136;40.360;2023-11-19T04:01:17;8.73;;;4.40;;
26486;SDS011;14425;56.136;40.360;2023-11-19T04:03:43;7.25;;;3.80;;
26486;SDS011;14425;56.136;40.360;2023-11-19T04:06:09;8.00;;;3.67;;
26486;SDS011;14425;56.136;40.360;2023-11-19T04:08:34;7.30;;;4.22;;
26486;SDS011;14425;56.136;40.360;2023-11-19T04:11:01;5.25;;;3.92;;
26486;SDS011;14425;56.136;40.360;2023-11-19T04:13:27;7.50;;;4.28;;
26486;SDS011;14425;56.136;40.360;2023-11-19T04:15:52;6.88;;;4.18;;
26486;SDS011;14425;56.136;40.360;2023-11-19T04:18:18;8.50;;;4.47;;
26486;SDS011;14425;56.136;40.360;2023-11-19T04:20:43;10.05;;;4.70;;
26486;SDS011;14425;56.136;40.360;2023-11-19T04:23:09;12.73;;;5.72;;
26486;SDS011;14425;56.136;40.360;2023-11-19T04:25:37;16.42;;;4.78;;
26486;SDS011;14425;56.136;40.360;2023-11-19T04:28:03;11.77;;;5.15;;
26486;SDS011;14425;56.136;40.360;2023-11-19T04:30:29;10.00;;;4.93;;
26486;SDS011;14425;56.136;40.360;2023-11-19T04:32:57;12.80;;;4.65;;
26486;SDS011;14425;56.136;40.360;2023-11-19T04:35:22;6.28;;;3.97;;
26486;SDS011;14425;56.136;40.360;2023-11-19T04:37:47;11.45;;;5.25;;
26486;SDS011;14425;56.136;40.360;2023-11-19T04:40:13;9.73;;;5.38;;
26486;SDS011;14425;56.136;40.360;2023-11-19T04:42:38;10.90;;;4.05;;
26486;SDS011;14425;56.136;40.360;2023-11-19T04:45:07;7.85;;;4.68;;
26486;SDS011;14425;56.136;40.360;2023-11-19T04:47:35;13.32;;;5.20;;
26486;SDS011;14425;56.136;40.360;2023-11-19T04:50:02;11.32;;;5.55;;
26486;SDS011;14425;56.136;40.360;2023-11-19T04:52:29;25.58;;;5.15;;
26486;SDS011;14425;56.136;40.360;2023-11-19T04:54:54;8.40;;;4.78;;
26486;SDS011;14425;56.136;40.360;2023-11-19T04:57:20;8.60;;;4.22;;
26486;SDS011;14425;56.136;40.360;2023-11-19T04:59:45;16.80;;;5.75;;
26486;SDS011;14425;56.136;40.360;2023-11-19T05:02:11;9.90;;;4.93;;
26486;SDS011;14425;56.136;40.360;2023-11-19T05:04:36;9.43;;;4.82;;
26486;SDS011;14425;56.136;40.360;2023-11-19T05:07:05;12.77;;;5.32;;
26486;SDS011;14425;56.136;40.360;2023-11-19T05:09:31;11.90;;;5.03;;
26486;SDS011;14425;56.136;40.360;2023-11-19T05:11:56;12.25;;;4.97;;
26486;SDS011;14425;56.136;40.360;2023-11-19T05:14:22;16.50;;;5.70;;
26486;SDS011;14425;56.136;40.360;2023-11-19T05:16:47;15.30;;;6.40;;
26486;SDS011;14425;56.136;40.360;2023-11-19T05:19:13;13.43;;;6.30;;
26486;SDS011;14425;56.136;40.360;2023-11-19T05:21:41;11.40;;;6.03;;
26486;SDS011;14425;56.136;40.360;2023-11-19T05:24:07;10.25;;;6.10;;
26486;SDS011;14425;56.136;40.360;2023-11-19T05:26:32;11.65;;;5.13;;
26486;SDS011;14425;56.136;40.360;2023-11-19T05:28:58;20.23;;;6.43;;
26486;SDS011;14425;56.136;40.360;2023-11-19T05:31:23;14.38;;;5.32;;
26486;SDS011;14425;56.136;40.360;2023-11-19T05:33:48;12.25;;;6.45;;
26486;SDS011;14425;56.136;40.360;2023-11-19T05:36:14;14.93;;;6.65;;
26486;SDS011;14425;56.136;40.360;2023-11-19T05:38:39;11.35;;;5.82;;
26486;SDS011;14425;56.136;40.360;2023-11-19T05:41:05;10.80;;;5.65;;
26486;SDS011;14425;56.136;40.360;2023-11-19T05:43:33;20.35;;;7.05;;
26486;SDS011;14425;56.136;40.360;2023-11-19T05:45:59;14.88;;;6.82;;
26486;SDS011;14425;56.136;40.360;2023-11-19T05:48:26;19.85;;;7.57;;
26486;SDS011;14425;56.136;40.360;2023-11-19T05:50:51;17.65;;;6.25;;
26486;SDS011;14425;56.136;40.360;2023-11-19T05:53:17;18.27;;;6.78;;
26486;SDS011;14425;56.136;40.360;2023-11-19T05:55:42;14.45;;;5.72;;
26486;SDS011;14425;56.136;40.360;2023-11-19T05:58:27;10.43;;;5.80;;
26486;SDS011;14425;56.136;40.360;2023-11-19T06:00:54;17.30;;;6.82;;
26486;SDS011;14425;56.136;40.360;2023-11-19T06:03:20;15.93;;;6.05;;
26486;SDS011;14425;56.136;40.360;2023-11-19T06:05:47;16.08;;;6.78;;
26486;SDS011;14425;56.136;40.360;2023-11-19T06:08:12;11.07;;;5.13;;
26486;SDS011;14425;56.136;40.360;2023-11-19T06:10:39;9.00;;;6.00;;
26486;SDS011;14425;56.136;40.360;2023-11-19T06:13:04;9.82;;;5.32;;
26486;SDS011;14425;56.136;40.360;2023-11-19T06:15:30;12.27;;;5.38;;
26486;SDS011;14425;56.136;40.360;2023-11-19T06:17:56;12.15;;;5.97;;
26486;SDS011;14425;56.136;40.360;2023-11-19T06:20:24;11.23;;;5.13;;
26486;SDS011;14425;56.136;40.360;2023-11-19T06:22:50;13.05;;;7.43;;
26486;SDS011;14425;56.136;40.360;2023-11-19T06:25:15;14.55;;;6.88;;
26486;SDS011;14425;56.136;40.360;2023-11-19T06:27:41;15.23;;;8.55;;
26486;SDS011;14425;56.136;40.360;2023-11-19T06:30:07;11.88;;;6.05;;
26486;SDS011;14425;56.136;40.360;2023-11-19T06:32:33;15.43;;;7.50;;
26486;SDS011;14425;56.136;40.360;2023-11-19T06:34:58;20.73;;;8.32;;
26486;SDS011;14425;56.136;40.360;2023-11-19T06:37:24;26.80;;;12.10;;
26486;SDS011;14425;56.136;40.360;2023-11-19T06:39:49;21.23;;;10.57;;
26486;SDS011;14425;56.136;40.360;2023-11-19T06:42:15;24.75;;;9.48;;
26486;SDS011;14425;56.136;40.360;2023-11-19T06:44:40;20.02;;;9.73;;
26486;SDS011;14425;56.136;40.360;2023-11-19T06:47:05;19.88;;;11.00;;
26486;SDS011;14425;56.136;40.360;2023-11-19T06:49:31;19.75;;;10.68;;
26486;SDS011;14425;56.136;40.360;2023-11-19T06:51:57;28.83;;;11.00;;
26486;SDS011;14425;56.136;40.360;2023-11-19T06:54:22;27.33;;;10.48;;
26486;SDS011;14425;56.136;40.360;2023-11-19T06:56:48;18.48;;;10.73;;
26486;SDS011;14425;56.136;40.360;2023-11-19T06:59:13;19.48;;;10.60;;
26486;SDS011;14425;56.136;40.360;2023-11-19T07:01:39;18.38;;;10.07;;
26486;SDS011;14425;56.136;40.360;2023-11-19T07:04:08;18.58;;;10.75;;
26486;SDS011;14425;56.136;40.360;2023-11-19T07:06:34;18.55;;;9.45;;
26486;SDS011;14425;56.136;40.360;2023-11-19T07:09:00;17.45;;;10.00;;
26486;SDS011;14425;56.136;40.360;2023-11-19T07:11:34;22.17;;;9.75;;
26486;SDS011;14425;56.136;40.360;2023-11-19T07:14:00;26.73;;;10.95;;
26486;SDS011;14425;56.136;40.360;2023-11-19T07:16:26;20.23;;;9.38;;
26486;SDS011;14425;56.136;40.360;2023-11-19T07:18:51;26.23;;;9.57;;
26486;SDS011;14425;56.136;40.360;2023-11-19T07:21:17;17.23;;;8.82;;
26486;SDS011;14425;56.136;40.360;2023-11-19T07:23:42;21.40;;;9.30;;
26486;SDS011;14425;56.136;40.360;2023-11-19T07:26:08;23.83;;;9.65;;
26486;SDS011;14425;56.136;40.360;2023-11-19T07:28:34;29.80;;;9.70;;
26486;SDS011;14425;56.136;40.360;2023-11-19T07:30:59;16.45;;;8.93;;
26486;SDS011;14425;56.136;40.360;2023-11-19T07:33:25;20.95;;;9.65;;
26486;SDS011;14425;56.136;40.360;2023-11-19T07:35:50;19.48;;;10.05;;
26486;SDS011;14425;56.136;40.360;2023-11-19T07:38:16;18.88;;;8.15;;
26486;SDS011;14425;56.136;40.360;2023-11-19T07:40:41;17.00;;;8.40;;
26486;SDS011;14425;56.136;40.360;2023-11-19T07:43:07;20.52;;;9.30;;
26486;SDS011;14425;56.136;40.360;2023-11-19T07:45:32;16.38;;;8.50;;
26486;SDS011;14425;56.136;40.360;2023-11-19T07:47:58;15.13;;;7.20;;
26486;SDS011;14425;56.136;40.360;2023-11-19T07:50:23;18.75;;;7.88;;
26486;SDS011;14425;56.136;40.360;2023-11-19T07:52:50;17.15;;;8.30;;
26486;SDS011;14425;56.136;40.360;2023-11-19T07:55:15;14.68;;;7.55;;
26486;SDS011;14425;56.136;40.360;2023-11-19T07:57:41;21.92;;;8.20;;
26486;SDS011;14425;56.136;40.360;2023-11-19T08:00:06;18.33;;;7.45;;
26486;SDS011;14425;56.136;40.360;2023-11-19T08:02:32;15.70;;;7.15;;
26486;SDS011;14425;56.136;40.360;2023-11-19T08:04:58;15.20;;;7.05;;
26486;SDS011;14425;56.136;40.360;2023-11-19T08:07:23;21.70;;;7.72;;
26486;SDS011;14425;56.136;40.360;2023-11-19T08:09:49;14.55;;;7.20;;
26486;SDS011;14425;56.136;40.360;2023-11-19T08:12:14;17.48;;;6.10;;
26486;SDS011;14425;56.136;40.360;2023-11-19T08:14:41;22.58;;;7.30;;
26486;SDS011;14425;56.136;40.360;2023-11-19T08:17:06;12.02;;;5.32;;
26486;SDS011;14425;56.136;40.360;2023-11-19T08:19:32;13.15;;;6.40;;
26486;SDS011;14425;56.136;40.360;2023-11-19T08:21:57;13.70;;;6.60;;
26486;SDS011;14425;56.136;40.360;2023-11-19T08:24:23;16.13;;;6.35;;
26486;SDS011;14425;56.136;40.360;2023-11-19T08:26:48;19.50;;;8.00;;
26486;SDS011;14425;56.136;40.360;2023-11-19T08:29:14;9.85;;;5.20;;
26486;SDS011;14425;56.136;40.360;2023-11-19T08:31:39;7.45;;;3.65;;
26486;SDS011;14425;56.136;40.360;2023-11-19T08:34:05;11.85;;;4.85;;
26486;SDS011;14425;56.136;40.360;2023-11-19T08:36:34;13.63;;;5.35;;
26486;SDS011;14425;56.136;40.360;2023-11-19T08:38:59;10.82;;;4.70;;
26486;SDS011;14425;56.136;40.360;2023-11-19T08:41:24;9.27;;;4.47;;
26486;SDS011;14425;56.136;40.360;2023-11-19T08:43:50;12.32;;;4.90;;
26486;SDS011;14425;56.136;40.360;2023-11-19T08:46:17;9.30;;;4.15;;
26486;SDS011;14425;56.136;40.360;2023-11-19T08:48:42;11.50;;;4.03;;
26486;SDS011;14425;56.136;40.360;2023-11-19T08:51:08;8.55;;;3.97;;
26486;SDS011;14425;56.136;40.360;2023-11-19T08:53:33;9.68;;;4.45;;
26486;SDS011;14425;56.136;40.360;2023-11-19T08:55:59;15.15;;;5.82;;
26486;SDS011;14425;56.136;40.360;2023-11-19T08:58:25;11.02;;;5.13;;
26486;SDS011;14425;56.136;40.360;2023-11-19T09:00:51;10.38;;;4.05;;
26486;SDS011;14425;56.136;40.360;2023-11-19T09:03:16;11.35;;;4.85;;
26486;SDS011;14425;56.136;40.360;2023-11-19T09:05:41;8.10;;;4.00;;
26486;SDS011;14425;56.136;40.360;2023-11-19T09:08:07;11.15;;;4.97;;
26486;SDS011;14425;56.136;40.360;2023-11-19T09:10:33;13.73;;;6.97;;
26486;SDS011;14425;56.136;40.360;2023-11-19T09:12:59;16.00;;;7.07;;
26486;SDS011;14425;56.136;40.360;2023-11-19T09:15:24;12.55;;;6.18;;
26486;SDS011;14425;56.136;40.360;2023-11-19T09:17:49;11.20;;;6.30;;
26486;SDS011;14425;56.136;40.360;2023-11-19T09:20:15;11.15;;;5.85;;
26486;SDS011;14425;56.136;40.360;2023-11-19T09:22:44;17.00;;;6.32;;
26486;SDS011;14425;56.136;40.360;2023-11-19T09:25:09;14.77;;;5.25;;
26486;SDS011;14425;56.136;40.360;2023-11-19T09:27:34;14.30;;;6.10;;
26486;SDS011;14425;56.136;40.360;2023-11-19T09:30:00;7.32;;;4.47;;
26486;SDS011;14425;56.136;40.360;2023-11-19T09:32:25;16.55;;;5.15;;
26486;SDS011;14425;56.136;40.360;2023-11-19T09:34:51;14.23;;;5.57;;
26486;SDS011;14425;56.136;40.360;2023-11-19T09:37:16;12.68;;;5.18;;
26486;SDS011;14425;56.136;40.360;2023-11-19T09:39:42;8.43;;;5.13;;
26486;SDS011;14425;56.136;40.360;2023-11-19T09:42:10;12.98;;;5.30;;
26486;SDS011;14425;56.136;40.360;2023-11-19T09:44:37;11.80;;;4.07;;
26486;SDS011;14425;56.136;40.360;2023-11-19T09:47:04;9.93;;;3.58;;
26486;SDS011;14425;56.136;40.360;2023-11-19T09:49:29;6.45;;;3.47;;
26486;SDS011;14425;56.136;40.360;2023-11-19T09:51:55;6.68;;;3.60;;
26486;SDS011;14425;56.136;40.360;2023-11-19T09:54:20;8.15;;;3.83;;
26486;SDS011;14425;56.136;40.360;2023-11-19T09:56:46;8.40;;;3.72;;
26486;SDS011;14425;56.136;40.360;2023-11-19T09:59:12;9.60;;;3.50;;
26486;SDS011;14425;56.136;40.360;2023-11-19T10:01:38;8.15;;;3.00;;
26486;SDS011;14425;56.136;40.360;2023-11-19T10:04:04;8.23;;;3.65;;
26486;SDS011;14425;56.136;40.360;2023-11-19T10:06:30;5.95;;;3.00;;
26486;SDS011;14425;56.136;40.360;2023-11-19T10:08:56;6.07;;;3.47;;
26486;SDS011;14425;56.136;40.360;2023-11-19T10:11:21;6.22;;;3.17;;
26486;SDS011;14425;56.136;40.360;2023-11-19T10:13:46;7.70;;;3.53;;
26486;SDS011;14425;56.136;40.360;2023-11-19T10:16:15;11.90;;;3.80;;
26486;SDS011;14425;56.136;40.360;2023-11-19T10:18:46;7.70;;;3.08;;
26486;SDS011;14425;56.136;40.360;2023-11-19T10:21:18;7.75;;;2.92;;
26486;SDS011;14425;56.136;40.360;2023-11-19T10:23:51;7.55;;;2.88;;
26486;SDS011;14425;56.136;40.360;2023-11-19T10:26:17;10.48;;;2.92;;
26486;SDS011;14425;56.136;40.360;2023-11-19T10:28:43;10.45;;;3.15;;
26486;SDS011;14425;56.136;40.360;2023-11-19T10:31:19;5.82;;;3.03;;
26486;SDS011;14425;56.136;40.360;2023-11-19T10:33:45;12.02;;;3.83;;
26486;SDS011;14425;56.136;40.360;2023-11-19T10:36:11;7.93;;;3.08;;
26486;SDS011;14425;56.136;40.360;2023-11-19T10:38:37;6.68;;;3.05;;
26486;SDS011;14425;56.136;40.360;2023-11-19T10:41:03;5.57;;;2.10;;
26486;SDS011;14425;56.136;40.360;2023-11-19T10:43:30;13.35;;;4.50;;
26486;SDS011;14425;56.136;40.360;2023-11-19T10:46:08;6.45;;;3.15;;
26486;SDS011;14425;56.136;40.360;2023-11-19T10:48:33;9.50;;;3.55;;
26486;SDS011;14425;56.136;40.360;2023-11-19T10:51:00;5.43;;;2.40;;
26486;SDS011;14425;56.136;40.360;2023-11-19T10:53:26;7.43;;;2.60;;
26486;SDS011;14425;56.136;40.360;2023-11-19T10:55:52;7.10;;;3.42;;
26486;SDS011;14425;56.136;40.360;2023-11-19T10:58:20;6.07;;;2.47;;
26486;SDS011;14425;56.136;40.360;2023-11-19T11:00:54;11.50;;;3.22;;
26486;SDS011;14425;56.136;40.360;2023-11-19T11:03:21;4.85;;;2.67;;
26486;SDS011;14425;56.136;40.360;2023-11-19T11:05:50;7.07;;;3.22;;
26486;SDS011;14425;56.136;40.360;2023-11-19T11:08:16;5.35;;;2.70;;
26486;SDS011;14425;56.136;40.360;2023-11-19T11:10:45;9.30;;;2.92;;
26486;SDS011;14425;56.136;40.360;2023-11-19T11:13:11;5.25;;;2.72;;
26486;SDS011;14425;56.136;40.360;2023-11-19T11:15:37;4.60;;;2.20;;
26486;SDS011;14425;56.136;40.360;2023-11-19T11:18:03;7.53;;;2.50;;
26486;SDS011;14425;56.136;40.360;2023-11-19T11:20:32;4.50;;;2.03;;
26486;SDS011;14425;56.136;40.360;2023-11-19T11:28:08;4.53;;;2.95;;
26486;SDS011;14425;56.136;40.360;2023-11-19T11:30:42;8.73;;;2.78;;
26486;SDS011;14425;56.136;40.360;2023-11-19T11:33:20;5.70;;;2.45;;
26486;SDS011;14425;56.136;40.360;2023-11-19T11:38:14;7.03;;;2.65;;
26486;SDS011;14425;56.136;40.360;2023-11-19T11:40:40;8.90;;;2.75;;
26486;SDS011;14425;56.136;40.360;2023-11-19T11:43:39;6.72;;;2.35;;
26486;SDS011;14425;56.136;40.360;2023-11-19T11:45:51;3.05;;;2.00;;
26486;SDS011;14425;56.136;40.360;2023-11-19T11:48:17;4.28;;;2.38;;
26486;SDS011;14425;56.136;40.360;2023-11-19T11:50:52;6.22;;;2.22;;
26486;SDS011;14425;56.136;40.360;2023-11-19T11:53:18;3.13;;;1.95;;
26486;SDS011;14425;56.136;40.360;2023-11-19T11:58:19;5.38;;;2.58;;
26486;SDS011;14425;56.136;40.360;2023-11-19T12:00:45;6.00;;;2.40;;
26486;SDS011;14425;56.136;40.360;2023-11-19T12:03:11;8.80;;;2.03;;
26486;SDS011;14425;56.136;40.360;2023-11-19T12:05:41;6.25;;;1.95;;
26486;SDS011;14425;56.136;40.360;2023-11-19T12:08:06;11.40;;;2.90;;
26486;SDS011;14425;56.136;40.360;2023-11-19T12:10:43;16.90;;;3.25;;
26486;SDS011;14425;56.136;40.360;2023-11-19T12:13:09;10.88;;;3.63;;
26486;SDS011;14425;56.136;40.360;2023-11-19T12:18:21;7.32;;;2.55;;
26486;SDS011;14425;56.136;40.360;2023-11-19T12:20:48;5.18;;;2.85;;
26486;SDS011;14425;56.136;40.360;2023-11-19T12:23:14;7.07;;;2.35;;
26486;SDS011;14425;56.136;40.360;2023-11-19T12:25:39;5.25;;;1.90;;
26486;SDS011;14425;56.136;40.360;2023-11-19T12:28:05;5.05;;;2.60;;
26486;SDS011;14425;56.136;40.360;2023-11-19T12:30:31;4.80;;;2.13;;
26486;SDS011;14425;56.136;40.360;2023-11-19T12:32:56;12.57;;;2.15;;
26486;SDS011;14425;56.136;40.360;2023-11-19T12:35:22;5.47;;;2.30;;
26486;SDS011;14425;56.136;40.360;2023-11-19T12:37:49;4.50;;;1.73;;
26486;SDS011;14425;56.136;40.360;2023-11-19T12:40:15;19.45;;;2.33;;
26486;SDS011;14425;56.136;40.360;2023-11-19T12:42:43;5.20;;;2.65;;
26486;SDS011;14425;56.136;40.360;2023-11-19T12:45:09;4.03;;;1.75;;
26486;SDS011;14425;56.136;40.360;2023-11-19T12:47:36;3.78;;;2.00;;
26486;SDS011;14425;56.136;40.360;2023-11-19T12:50:02;4.70;;;2.22;;
26486;SDS011;14425;56.136;40.360;2023-11-19T12:52:29;4.10;;;2.42;;
26486;SDS011;14425;56.136;40.360;2023-11-19T12:54:55;12.07;;;2.33;;
26486;SDS011;14425;56.136;40.360;2023-11-19T12:57:20;8.07;;;2.80;;
26486;SDS011;14425;56.136;40.360;2023-11-19T12:59:55;6.78;;;3.25;;
26486;SDS011;14425;56.136;40.360;2023-11-19T13:02:21;8.98;;;2.97;;
26486;SDS011;14425;56.136;40.360;2023-11-19T13:04:48;5.55;;;2.65;;
26486;SDS011;14425;56.136;40.360;2023-11-19T13:07:15;5.65;;;2.40;;
26486;SDS011;14425;56.136;40.360;2023-11-19T13:09:45;5.82;;;2.25;;
26486;SDS011;14425;56.136;40.360;2023-11-19T13:12:14;4.53;;;1.98;;
26486;SDS011;14425;56.136;40.360;2023-11-19T13:14:40;4.35;;;2.20;;
26486;SDS011;14425;56.136;40.360;2023-11-19T13:17:07;7.55;;;2.95;;
26486;SDS011;14425;56.136;40.360;2023-11-19T13:19:33;7.35;;;2.70;;
26486;SDS011;14425;56.136;40.360;2023-11-19T13:22:00;6.97;;;2.42;;
26486;SDS011;14425;56.136;40.360;2023-11-19T13:24:25;7.05;;;2.85;;
26486;SDS011;14425;56.136;40.360;2023-11-19T13:26:50;7.03;;;2.35;;
26486;SDS011;14425;56.136;40.360;2023-11-19T13:29:16;10.23;;;2.30;;
26486;SDS011;14425;56.136;40.360;2023-11-19T13:31:41;4.63;;;2.67;;
26486;SDS011;14425;56.136;40.360;2023-11-19T13:34:07;3.78;;;2.00;;
26486;SDS011;14425;56.136;40.360;2023-11-19T13:36:33;7.03;;;1.98;;
26486;SDS011;14425;56.136;40.360;2023-11-19T13:38:59;5.40;;;2.30;;
26486;SDS011;14425;56.136;40.360;2023-11-19T13:41:28;5.20;;;2.72;;
26486;SDS011;14425;56.136;40.360;2023-11-19T13:43:53;10.50;;;2.63;;
26486;SDS011;14425;56.136;40.360;2023-11-19T13:46:20;10.13;;;3.20;;
26486;SDS011;14425;56.136;40.360;2023-11-19T13:48:45;6.40;;;2.95;;
26486;SDS011;14425;56.136;40.360;2023-11-19T13:51:11;6.95;;;3.33;;
26486;SDS011;14425;56.136;40.360;2023-11-19T13:53:37;6.07;;;3.28;;
26486;SDS011;14425;56.136;40.360;2023-11-19T13:56:03;9.15;;;3.47;;
26486;SDS011;14425;56.136;40.360;2023-11-19T13:58:28;3.95;;;2.70;;
26486;SDS011;14425;56.136;40.360;2023-11-19T14:00:54;5.65;;;2.60;;
26486;SDS011;14425;56.136;40.360;2023-11-19T14:03:19;4.75;;;2.60;;
26486;SDS011;14425;56.136;40.360;2023-11-19T14:05:45;5.95;;;3.00;;
26486;SDS011;14425;56.136;40.360;2023-11-19T14:08:10;5.07;;;3.15;;
26486;SDS011;14425;56.136;40.360;2023-11-19T14:10:39;5.80;;;2.90;;
26486;SDS011;14425;56.136;40.360;2023-11-19T14:13:08;5.65;;;2.83;;
26486;SDS011;14425;56.136;40.360;2023-11-19T14:15:34;8.50;;;4.07;;
26486;SDS011;14425;56.136;40.360;2023-11-19T14:17:59;12.90;;;3.90;;
26486;SDS011;14425;56.136;40.360;2023-11-19T14:20:25;3.58;;;2.22;;
26486;SDS011;14425;56.136;40.360;2023-11-19T14:22:51;5.25;;;2.50;;
26486;SDS011;14425;56.136;40.360;2023-11-19T14:25:17;5.53;;;2.00;;
26486;SDS011;14425;56.136;40.360;2023-11-19T14:27:44;4.68;;;3.00;;
26486;SDS011;14425;56.136;40.360;2023-11-19T14:30:11;9.57;;;2.55;;
26486;SDS011;14425;56.136;40.360;2023-11-19T14:32:38;4.32;;;2.45;;
26486;SDS011;14425;56.136;40.360;2023-11-19T14:35:04;3.63;;;2.15;;
26486;SDS011;14425;56.136;40.360;2023-11-19T14:37:30;4.82;;;2.08;;
26486;SDS011;14425;56.136;40.360;2023-11-19T14:39:58;3.50;;;2.15;;